createdAt,value
2018-01-03T00:00:18.776Z,1.15
2018-01-03T00:02:46.648Z,1.10
2018-01-03T00:05:14.157Z,1.10
2018-01-03T00:07:42.508Z,1.27
2018-01-03T00:10:10.025Z,1.00
2018-01-03T00:12:37.532Z,1.70
2018-01-03T00:15:05.504Z,1.50
2018-01-03T00:17:33.000Z,1.50
2018-01-03T00:20:00.876Z,1.02
2018-01-03T00:22:28.372Z,0.90
2018-01-03T00:24:55.852Z,1.00
2018-01-03T00:27:23.424Z,0.88
2018-01-03T00:29:50.905Z,0.90
2018-01-03T00:32:18.501Z,0.62
2018-01-03T00:34:45.989Z,0.88
2018-01-03T00:37:13.905Z,1.10
2018-01-03T00:39:41.387Z,0.90
2018-01-03T00:42:08.941Z,0.85
2018-01-03T00:44:36.510Z,0.50
2018-01-03T00:47:03.993Z,1.02
2018-01-03T00:49:31.492Z,1.23
2018-01-03T00:51:58.980Z,0.77
2018-01-03T00:54:26.472Z,0.43
2018-01-03T00:56:54.340Z,0.50
2018-01-03T00:59:21.830Z,0.62
2018-01-03T01:01:49.303Z,0.45
2018-01-03T01:04:16.833Z,0.60
2018-01-03T01:06:44.674Z,0.50
2018-01-03T01:09:12.269Z,0.47
2018-01-03T01:11:39.887Z,0.40
2018-01-03T01:14:07.812Z,0.35
2018-01-03T01:16:35.291Z,0.40
2018-01-03T01:19:02.767Z,0.40
2018-01-03T01:21:30.268Z,0.60
2018-01-03T01:23:57.788Z,0.30
2018-01-03T01:26:25.288Z,0.20
2018-01-03T01:28:53.155Z,0.40
2018-01-03T01:31:20.659Z,0.30
2018-01-03T01:33:48.130Z,0.30
2018-01-03T01:36:15.625Z,0.40
2018-01-03T01:38:43.490Z,0.40
2018-01-03T01:41:11.080Z,0.55
2018-01-03T01:43:38.569Z,0.65
2018-01-03T01:46:06.097Z,0.50
2018-01-03T01:48:33.635Z,0.40
2018-01-03T01:51:01.211Z,0.60
2018-01-03T01:53:28.688Z,0.70
2018-01-03T01:55:56.168Z,0.60
2018-01-03T01:58:23.665Z,0.80
2018-01-03T02:00:51.256Z,0.70
2018-01-03T02:03:18.751Z,1.00
2018-01-03T02:05:46.624Z,0.95
2018-01-03T02:08:14.115Z,1.17
2018-01-03T02:10:41.597Z,1.05
2018-01-03T02:13:09.086Z,0.70
2018-01-03T02:15:36.564Z,0.95
2018-01-03T02:18:04.073Z,0.80
2018-01-03T02:20:31.547Z,1.10
2018-01-03T02:22:59.511Z,0.95
2018-01-03T02:25:27.103Z,1.40
2018-01-03T02:27:54.588Z,1.10
2018-01-03T02:30:22.169Z,1.40
2018-01-03T02:32:49.656Z,1.70
2018-01-03T02:35:17.146Z,1.20
2018-01-03T02:37:44.715Z,1.33
2018-01-03T02:40:12.207Z,1.60
2018-01-03T02:42:39.681Z,1.58
2018-01-03T02:45:07.172Z,1.52
2018-01-03T02:47:34.757Z,2.10
2018-01-03T02:50:02.258Z,1.52
2018-01-03T02:52:30.140Z,2.50
2018-01-03T02:54:58.052Z,2.37
2018-01-03T02:57:25.936Z,2.40
2018-01-03T02:59:53.816Z,1.90
2018-01-03T03:02:21.394Z,2.25
2018-01-03T03:04:48.872Z,1.27
2018-01-03T03:07:16.390Z,1.75
2018-01-03T03:09:43.868Z,1.33
2018-01-03T03:12:11.795Z,1.65
2018-01-03T03:14:39.312Z,1.33
2018-01-03T03:17:06.812Z,1.50
2018-01-03T03:19:34.692Z,1.25
2018-01-03T03:22:02.182Z,1.58
2018-01-03T03:24:29.756Z,1.02
2018-01-03T03:26:57.264Z,0.50
2018-01-03T03:29:25.131Z,0.95
2018-01-03T03:31:52.609Z,0.95
2018-01-03T03:34:20.199Z,0.80
2018-01-03T03:36:47.679Z,0.98
2018-01-03T03:39:15.258Z,0.88
2018-01-03T03:41:42.754Z,0.90
2018-01-03T03:44:10.266Z,0.77
2018-01-03T03:46:37.741Z,0.68
2018-01-03T03:49:05.641Z,0.82
2018-01-03T03:51:33.191Z,0.82
2018-01-03T03:54:00.684Z,0.82
2018-01-03T03:56:28.258Z,0.70
2018-01-03T03:58:55.758Z,0.70
2018-01-03T04:01:23.640Z,0.85
2018-01-03T04:03:51.123Z,0.70
2018-01-03T04:06:18.704Z,0.80
2018-01-03T04:08:46.178Z,0.60
2018-01-03T04:11:13.763Z,0.43
2018-01-03T04:13:41.240Z,0.77
2018-01-03T04:16:08.740Z,0.80
2018-01-03T04:18:36.224Z,0.70
2018-01-03T04:21:03.714Z,0.37
2018-01-03T04:23:31.583Z,0.60
2018-01-03T04:25:59.087Z,0.50
2018-01-03T04:28:26.572Z,0.50
2018-01-03T04:30:54.439Z,0.50
2018-01-03T04:33:22.037Z,0.35
2018-01-03T04:35:49.528Z,0.40
2018-01-03T04:38:17.533Z,0.50
2018-01-03T04:40:45.505Z,0.50
2018-01-03T04:43:13.012Z,0.40
2018-01-03T04:45:40.883Z,0.28
2018-01-03T04:48:08.386Z,0.20
2018-01-03T04:50:36.265Z,0.30
2018-01-03T04:53:03.772Z,0.30
2018-01-03T04:55:31.639Z,0.40
2018-01-03T04:57:59.137Z,0.40
2018-01-03T05:00:26.622Z,0.30
2018-01-03T05:02:54.525Z,0.50
2018-01-03T05:05:22.080Z,0.80
2018-01-03T05:07:49.660Z,0.45
2018-01-03T05:10:17.137Z,0.30
2018-01-03T05:12:44.618Z,0.40
2018-01-03T05:15:12.116Z,0.30
2018-01-03T05:17:39.587Z,0.40
2018-01-03T05:20:07.083Z,0.47
2018-01-03T05:22:34.656Z,0.50
2018-01-03T05:25:02.154Z,0.50
2018-01-03T05:27:30.127Z,0.40
2018-01-03T05:29:57.718Z,0.60
2018-01-03T05:32:25.219Z,0.50
2018-01-03T05:34:52.729Z,0.40
2018-01-03T05:37:20.212Z,0.77
2018-01-03T05:39:47.726Z,0.85
2018-01-03T05:42:15.236Z,0.50
2018-01-03T05:44:42.721Z,0.50
2018-01-03T05:47:10.237Z,0.65
2018-01-03T05:49:37.720Z,0.50
2018-01-03T05:52:05.223Z,0.60
2018-01-03T05:54:32.700Z,0.80
2018-01-03T05:57:00.201Z,0.55
2018-01-03T05:59:27.712Z,0.62
2018-01-03T06:01:55.216Z,0.40
2018-01-03T06:04:23.186Z,0.52
2018-01-03T06:06:50.690Z,0.65
2018-01-03T06:09:18.681Z,1.17
2018-01-03T06:11:46.266Z,0.80
2018-01-03T06:14:14.146Z,1.00
2018-01-03T06:16:41.661Z,0.60
2018-01-03T06:19:09.531Z,1.10
2018-01-03T06:21:37.012Z,1.02
2018-01-03T06:24:04.600Z,1.02
2018-01-03T06:26:32.092Z,1.20
2018-01-03T06:28:59.979Z,1.23
2018-01-03T06:31:27.873Z,1.45
2018-01-03T06:33:55.764Z,1.62
2018-01-03T06:36:23.645Z,2.05
2018-01-03T06:38:51.149Z,2.00
2018-01-03T06:41:19.028Z,1.95
2018-01-03T06:43:46.528Z,2.55
2018-01-03T06:46:14.421Z,1.80
2018-01-03T06:48:42.336Z,2.03
2018-01-03T06:51:09.832Z,1.75
2018-01-03T06:53:37.316Z,2.22
2018-01-03T06:56:04.817Z,2.05
2018-01-03T06:58:32.304Z,1.95
2018-01-03T07:00:59.809Z,2.10
2018-01-03T07:03:27.282Z,1.60
2018-01-03T07:05:54.780Z,1.87
2018-01-03T07:08:22.769Z,2.90
2018-01-03T07:10:50.348Z,2.17
2018-01-03T07:13:17.828Z,2.10
2018-01-03T07:15:45.333Z,2.25
2018-01-03T07:18:13.220Z,2.00
2018-01-03T07:20:41.117Z,2.10
2018-01-03T07:23:09.010Z,1.85
2018-01-03T07:25:36.904Z,3.00
2018-01-03T07:28:04.781Z,2.70
2018-01-03T07:30:32.676Z,1.55
2018-01-03T07:33:00.155Z,3.60
2018-01-03T07:35:27.732Z,2.12
2018-01-03T07:37:55.206Z,2.33
2018-01-03T07:40:22.716Z,1.60
2018-01-03T07:42:50.587Z,2.05
2018-01-03T07:45:18.088Z,2.70
2018-01-03T07:47:45.964Z,2.37
2018-01-03T07:50:13.548Z,2.65
2018-01-03T07:52:41.031Z,2.78
2018-01-03T07:55:08.538Z,1.90
2018-01-03T07:57:36.417Z,1.85
2018-01-03T08:00:03.944Z,0.90
2018-01-03T08:02:31.432Z,1.25
2018-01-03T08:04:58.956Z,1.20
2018-01-03T08:07:26.450Z,1.17
2018-01-03T08:09:53.928Z,0.50
2018-01-03T08:12:21.509Z,1.05
2018-01-03T08:14:49.096Z,0.82
2018-01-03T08:17:16.587Z,1.00
2018-01-03T08:19:44.156Z,1.20
2018-01-03T08:22:11.647Z,2.35
2018-01-03T08:24:39.224Z,1.58
2018-01-03T08:27:06.720Z,1.10
2018-01-03T08:29:34.214Z,1.55
2018-01-03T08:32:02.213Z,1.60
2018-01-03T08:34:30.093Z,1.65
2018-01-03T08:36:58.005Z,2.78
2018-01-03T08:39:25.881Z,2.53
2018-01-03T08:41:53.784Z,2.53
2018-01-03T08:44:21.664Z,3.03
2018-01-03T08:46:49.566Z,2.15
2018-01-03T08:49:17.468Z,2.00
2018-01-03T08:51:44.976Z,3.17
2018-01-03T08:54:12.500Z,3.00
2018-01-03T08:56:40.001Z,2.20
2018-01-03T08:59:07.875Z,2.72
2018-01-03T09:01:35.400Z,2.12
2018-01-03T09:04:02.884Z,3.35
2018-01-03T09:06:30.390Z,3.17
2018-01-03T09:08:57.916Z,3.10
2018-01-03T09:11:25.421Z,2.30
2018-01-03T09:13:53.299Z,2.65
2018-01-03T09:16:20.802Z,2.92
2018-01-03T09:18:48.279Z,2.70
2018-01-03T09:21:16.166Z,3.08
2018-01-03T09:23:43.727Z,2.35
2018-01-03T09:26:11.215Z,2.85
2018-01-03T09:28:38.796Z,3.08
2018-01-03T09:31:06.397Z,3.40
2018-01-03T09:33:34.288Z,1.42
2018-01-03T09:36:02.271Z,2.62
2018-01-03T09:38:29.763Z,2.22
2018-01-03T09:40:57.684Z,2.65
2018-01-03T09:43:25.233Z,1.95
2018-01-03T09:45:52.716Z,1.50
2018-01-03T09:48:20.210Z,1.50
2018-01-03T09:50:48.102Z,1.60
2018-01-03T09:53:15.997Z,2.35
2018-01-03T09:55:43.964Z,2.67
2018-01-03T09:58:11.469Z,2.22
2018-01-03T10:00:38.964Z,1.70
2018-01-03T10:03:06.860Z,2.75
2018-01-03T10:05:34.740Z,2.17
2018-01-03T10:08:02.637Z,2.42
2018-01-03T10:10:30.603Z,2.10
2018-01-03T10:12:58.096Z,2.72
2018-01-03T10:15:25.676Z,3.80
2018-01-03T10:17:53.268Z,3.15
2018-01-03T10:20:20.747Z,3.22
2018-01-03T10:22:48.268Z,3.53
2018-01-03T10:25:15.812Z,3.20
2018-01-03T10:27:43.312Z,2.53
2018-01-03T10:30:11.183Z,3.03
2018-01-03T10:32:38.768Z,2.65
2018-01-03T10:35:06.252Z,3.12
2018-01-03T10:37:34.991Z,2.53
2018-01-03T10:40:02.884Z,2.55
2018-01-03T10:42:30.788Z,2.92
2018-01-03T10:44:58.336Z,3.30
2018-01-03T10:47:25.841Z,4.15
2018-01-03T10:49:53.728Z,2.78
2018-01-03T10:52:21.623Z,2.53
2018-01-03T10:54:49.507Z,2.62
2018-01-03T10:57:17.396Z,2.15
2018-01-03T10:59:44.900Z,2.53
2018-01-03T11:02:12.772Z,2.47
2018-01-03T11:04:40.281Z,2.75
2018-01-03T11:07:07.768Z,2.80
2018-01-03T11:09:35.274Z,1.90
2018-01-03T11:12:02.759Z,2.15
2018-01-03T11:14:30.277Z,3.08
2018-01-03T11:16:57.797Z,2.53
2018-01-03T11:19:25.308Z,3.00
2018-01-03T11:21:52.824Z,2.55
2018-01-03T11:24:20.403Z,2.72
2018-01-03T11:26:47.898Z,2.95
2018-01-03T11:29:15.397Z,2.80
2018-01-03T11:31:43.363Z,3.53
2018-01-03T11:34:10.869Z,3.92
2018-01-03T11:36:38.748Z,2.58
2018-01-03T11:39:06.250Z,3.97
2018-01-03T11:41:34.192Z,2.97
2018-01-03T11:44:01.665Z,2.97
2018-01-03T11:46:29.152Z,2.30
2018-01-03T11:48:56.656Z,3.60
2018-01-03T11:51:24.135Z,2.90
2018-01-03T11:53:51.671Z,3.83
2018-01-03T11:56:19.147Z,2.35
2018-01-03T11:58:47.133Z,2.17
2018-01-03T12:01:15.025Z,2.12
2018-01-03T12:03:43.004Z,3.53
2018-01-03T12:06:10.499Z,2.92
2018-01-03T12:08:38.404Z,3.00
2018-01-03T12:11:06.340Z,3.03
2018-01-03T12:13:33.845Z,2.45
2018-01-03T12:16:01.321Z,2.40
2018-01-03T12:18:28.800Z,2.10
2018-01-03T12:20:56.433Z,3.17
2018-01-03T12:23:23.914Z,2.60
2018-01-03T12:25:51.823Z,2.80
2018-01-03T12:28:19.368Z,3.03
2018-01-03T12:30:46.883Z,3.53
2018-01-03T12:33:14.372Z,2.95
2018-01-03T12:35:41.881Z,3.10
2018-01-03T12:38:09.364Z,2.70
2018-01-03T12:40:36.873Z,3.80
2018-01-03T12:43:04.356Z,3.55
2018-01-03T12:45:31.856Z,3.40
2018-01-03T12:47:59.736Z,3.45
2018-01-03T12:50:27.656Z,2.78
2018-01-03T12:52:55.537Z,2.85
2018-01-03T12:55:23.555Z,2.92
2018-01-03T12:57:51.090Z,3.85
2018-01-03T13:00:18.608Z,3.25
2018-01-03T13:02:46.572Z,3.60
2018-01-03T13:05:14.072Z,2.90
2018-01-03T13:07:42.049Z,3.20
2018-01-03T13:10:09.597Z,3.05
2018-01-03T13:12:37.104Z,3.00
2018-01-03T13:15:04.692Z,3.22
2018-01-03T13:17:32.192Z,2.65
2018-01-03T13:19:59.697Z,2.50
2018-01-03T13:22:27.652Z,2.50
2018-01-03T13:24:55.161Z,1.75
2018-01-03T13:27:23.045Z,3.80
2018-01-03T13:29:50.552Z,2.55
2018-01-03T13:32:18.507Z,2.92
2018-01-03T13:34:46.109Z,4.15
2018-01-03T13:37:13.597Z,2.90
2018-01-03T13:39:41.179Z,2.15
2018-01-03T13:42:09.089Z,3.87
2018-01-03T13:44:36.972Z,3.25
2018-01-03T13:47:04.872Z,3.70
2018-01-03T13:49:32.831Z,3.45
2018-01-03T13:52:00.345Z,4.18
2018-01-03T13:54:28.222Z,3.30
2018-01-03T13:56:56.116Z,2.28
2018-01-03T13:59:23.604Z,2.10
2018-01-03T14:01:51.585Z,2.40
2018-01-03T14:04:19.058Z,2.87
2018-01-03T14:06:46.574Z,3.05
2018-01-03T14:09:14.539Z,3.72
2018-01-03T14:11:42.060Z,3.20
2018-01-03T14:14:09.595Z,3.10
2018-01-03T14:16:37.090Z,2.65
2018-01-03T14:19:04.676Z,2.75
2018-01-03T14:21:32.282Z,2.70
2018-01-03T14:24:00.156Z,2.35
2018-01-03T14:26:27.652Z,2.05
2018-01-03T14:28:55.536Z,2.75
2018-01-03T14:31:23.127Z,2.95
2018-01-03T14:33:50.609Z,1.92
2018-01-03T14:36:18.109Z,2.83
2018-01-03T14:38:45.990Z,2.42
2018-01-03T14:41:13.908Z,2.55
2018-01-03T14:43:41.451Z,3.20
2018-01-03T14:46:09.036Z,6.57
2018-01-03T14:48:36.625Z,12.15
2018-01-03T14:51:04.137Z,4.80
2018-01-03T14:53:31.666Z,4.62
2018-01-03T14:55:59.159Z,5.70
2018-01-03T14:58:26.694Z,5.37
2018-01-03T15:00:54.265Z,3.50
2018-01-03T15:03:22.149Z,4.55
2018-01-03T15:05:49.652Z,4.37
2018-01-03T15:08:17.164Z,2.97
2018-01-03T15:10:44.649Z,3.90
2018-01-03T15:13:12.148Z,2.60
2018-01-03T15:15:39.626Z,2.47
2018-01-03T15:18:07.128Z,2.90
2018-01-03T15:20:34.608Z,4.07
2018-01-03T15:23:02.122Z,3.20
2018-01-03T15:25:29.996Z,4.10
2018-01-03T15:27:57.487Z,4.40
2018-01-03T15:30:25.365Z,3.45
2018-01-03T15:32:52.855Z,2.60
2018-01-03T15:35:20.338Z,3.12
2018-01-03T15:37:48.265Z,3.12
2018-01-03T15:40:15.840Z,4.50
2018-01-03T15:42:43.736Z,2.78
2018-01-03T15:45:11.284Z,3.60
2018-01-03T15:47:38.792Z,2.62
2018-01-03T15:50:06.308Z,2.85
2018-01-03T15:52:33.808Z,3.12
2018-01-03T15:55:01.293Z,4.22
2018-01-03T15:57:28.787Z,4.28
2018-01-03T15:59:56.267Z,3.92
2018-01-03T16:02:23.867Z,3.85
2018-01-03T16:04:51.348Z,3.83
2018-01-03T16:07:18.843Z,3.65
2018-01-03T16:09:46.346Z,3.33
2018-01-03T16:12:13.844Z,4.07
2018-01-03T16:14:41.329Z,3.30
2018-01-03T16:17:08.855Z,3.03
2018-01-03T16:19:36.448Z,3.12
2018-01-03T16:22:03.949Z,4.45
2018-01-03T16:24:31.951Z,2.90
2018-01-03T16:26:59.876Z,3.47
2018-01-03T16:29:27.432Z,2.90
2018-01-03T16:31:55.340Z,3.00
2018-01-03T16:34:22.881Z,4.18
2018-01-03T16:36:50.354Z,4.47
2018-01-03T16:39:17.884Z,7.70
2018-01-03T16:41:45.368Z,5.97
2018-01-03T16:44:12.896Z,4.18
2018-01-03T16:46:40.396Z,4.75
2018-01-03T16:49:07.976Z,4.20
2018-01-03T16:51:41.283Z,7.10
2018-01-03T16:54:08.824Z,4.00
2018-01-03T16:56:36.312Z,3.97
2018-01-03T16:59:03.865Z,3.33
2018-01-03T17:01:31.740Z,4.05
2018-01-03T17:03:59.290Z,4.90
2018-01-03T17:06:26.780Z,5.60
2018-01-03T17:08:54.278Z,4.30
2018-01-03T17:11:21.768Z,6.12
2018-01-03T17:13:49.388Z,4.28
2018-01-03T17:16:17.269Z,14.73
2018-01-03T17:18:45.179Z,6.22
2018-01-03T17:21:12.660Z,5.20
2018-01-03T17:23:40.724Z,3.75
2018-01-03T17:26:08.302Z,4.65
2018-01-03T17:28:35.835Z,4.50
2018-01-03T17:31:03.324Z,4.00
2018-01-03T17:33:30.985Z,3.75
2018-01-03T17:35:58.859Z,4.70
2018-01-03T17:38:26.443Z,4.07
2018-01-03T17:40:54.037Z,4.62
2018-01-03T17:43:21.560Z,3.70
2018-01-03T17:45:49.236Z,4.55
2018-01-03T17:48:16.745Z,6.45
2018-01-03T17:50:44.228Z,7.93
2018-01-03T17:53:11.733Z,9.98
2018-01-03T17:55:39.228Z,10.10
2018-01-03T17:58:06.721Z,7.65
2018-01-03T18:00:34.247Z,7.25
2018-01-03T18:03:01.734Z,9.15
2018-01-03T18:05:29.246Z,13.90
2018-01-03T18:07:56.738Z,4.97
2018-01-03T18:10:24.332Z,4.95
2018-01-03T18:12:51.817Z,5.85
2018-01-03T18:15:19.324Z,6.03
2018-01-03T18:17:47.212Z,6.47
2018-01-03T18:20:15.103Z,5.65
2018-01-03T18:22:42.979Z,14.57
2018-01-03T18:25:10.557Z,5.60
2018-01-03T18:27:38.041Z,5.15
2018-01-03T18:30:05.546Z,3.90
2018-01-03T18:32:33.433Z,6.05
2018-01-03T18:35:01.329Z,4.87
2018-01-03T18:37:29.207Z,5.12
2018-01-03T18:39:56.717Z,4.55
2018-01-03T18:42:24.268Z,4.40
2018-01-03T18:44:51.856Z,4.95
2018-01-03T18:47:19.335Z,4.85
2018-01-03T18:49:46.830Z,6.55
2018-01-03T18:52:14.716Z,4.85
2018-01-03T18:54:42.301Z,5.87
2018-01-03T18:57:09.784Z,4.70
2018-01-03T18:59:37.368Z,4.80
2018-01-03T19:02:04.857Z,5.95
2018-01-03T19:04:32.751Z,4.68
2018-01-03T19:07:00.633Z,5.90
2018-01-03T19:09:28.141Z,4.75
2018-01-03T19:11:55.628Z,6.28
2018-01-03T19:14:23.173Z,7.43
2018-01-03T19:16:50.647Z,8.55
2018-01-03T19:19:18.210Z,7.70
2018-01-03T19:21:45.737Z,7.82
2018-01-03T19:24:13.607Z,6.15
2018-01-03T19:26:41.098Z,6.43
2018-01-03T19:29:08.583Z,5.47
2018-01-03T19:31:36.084Z,9.07
2018-01-03T19:34:03.600Z,4.78
2018-01-03T19:36:31.153Z,5.95
2018-01-03T19:38:59.023Z,4.60
2018-01-03T19:41:26.568Z,5.50
2018-01-03T19:43:54.043Z,4.87
2018-01-03T19:46:21.548Z,5.82
2018-01-03T19:48:49.032Z,6.45
2018-01-03T19:51:16.522Z,5.15
2018-01-03T19:53:44.011Z,6.40
2018-01-03T19:56:11.507Z,5.22
2018-01-03T19:58:39.124Z,5.30
2018-01-03T20:01:06.624Z,5.85
2018-01-03T20:03:34.113Z,4.53
2018-01-03T20:06:01.620Z,7.47
2018-01-03T20:08:29.108Z,7.70
2018-01-03T20:10:56.608Z,6.35
2018-01-03T20:13:24.188Z,5.50
2018-01-03T20:15:51.693Z,4.93
2018-01-03T20:18:19.588Z,7.55
2018-01-03T20:20:47.488Z,6.85
2018-01-03T20:23:15.359Z,8.15
2018-01-03T20:25:42.855Z,5.93
2018-01-03T20:28:10.823Z,6.97
2018-01-03T20:30:38.319Z,7.05
2018-01-03T20:33:06.299Z,6.28
2018-01-03T20:35:33.801Z,7.45
2018-01-03T20:38:01.675Z,5.22
2018-01-03T20:40:29.291Z,5.75
2018-01-03T20:42:57.255Z,6.12
2018-01-03T20:45:24.731Z,4.80
2018-01-03T20:47:52.323Z,4.78
2018-01-03T20:50:19.794Z,4.70
2018-01-03T20:52:47.287Z,4.93
2018-01-03T20:55:14.777Z,5.80
2018-01-03T20:57:42.270Z,5.70
2018-01-03T21:00:10.145Z,4.87
2018-01-03T21:02:37.727Z,5.93
2018-01-03T21:05:05.231Z,6.40
2018-01-03T21:07:33.148Z,4.82
2018-01-03T21:10:00.699Z,5.35
2018-01-03T21:12:28.199Z,4.80
2018-01-03T21:14:56.092Z,5.28
2018-01-03T21:17:23.979Z,6.47
2018-01-03T21:19:51.860Z,5.03
2018-01-03T21:22:19.360Z,6.20
2018-01-03T21:24:47.331Z,5.90
2018-01-03T21:27:14.849Z,6.03
2018-01-03T21:29:42.332Z,5.50
2018-01-03T21:32:09.826Z,4.43
2018-01-03T21:34:37.364Z,6.43
2018-01-03T21:37:04.856Z,7.07
2018-01-03T21:39:32.733Z,5.82
2018-01-03T21:42:00.212Z,7.65
2018-01-03T21:44:27.711Z,5.43
2018-01-03T21:46:55.313Z,6.47
2018-01-03T21:49:23.212Z,8.73
2018-01-03T21:51:51.092Z,7.93
2018-01-03T21:54:18.991Z,6.50
2018-01-03T21:56:46.868Z,6.93
2018-01-03T21:59:14.373Z,7.22
2018-01-03T22:01:42.248Z,7.03
2018-01-03T22:04:10.140Z,8.75
2018-01-03T22:06:38.024Z,7.85
2018-01-03T22:09:05.541Z,6.70
2018-01-03T22:11:33.074Z,6.30
2018-01-03T22:14:00.576Z,6.32
2018-01-03T22:16:28.152Z,7.10
2018-01-03T22:18:55.631Z,7.87
2018-01-03T22:21:23.127Z,7.87
2018-01-03T22:23:50.699Z,6.80
2018-01-03T22:26:18.287Z,7.85
2018-01-03T22:28:45.764Z,6.10
2018-01-03T22:31:13.264Z,7.32
2018-01-03T22:33:40.739Z,6.12
2018-01-03T22:36:08.244Z,5.95
2018-01-03T22:38:36.128Z,6.57
2018-01-03T22:41:04.032Z,5.12
2018-01-03T22:43:31.908Z,6.35
2018-01-03T22:45:59.409Z,5.95
2018-01-03T22:48:27.325Z,6.12
2018-01-03T22:50:54.878Z,6.43
2018-01-03T22:53:22.339Z,6.03
2018-01-03T22:55:49.824Z,5.68
2018-01-03T22:58:17.363Z,7.20
2018-01-03T23:00:44.888Z,5.60
2018-01-03T23:03:12.388Z,6.15
2018-01-03T23:05:40.368Z,5.30
2018-01-03T23:08:07.949Z,5.70
2018-01-03T23:10:35.437Z,6.87
2018-01-03T23:13:03.011Z,7.37
2018-01-03T23:15:30.496Z,5.90
2018-01-03T23:17:58.093Z,6.93
2018-01-03T23:20:25.571Z,6.93
2018-01-03T23:22:53.067Z,6.45
2018-01-03T23:25:21.066Z,6.60
2018-01-03T23:27:48.980Z,7.78
2018-01-03T23:30:16.462Z,6.20
2018-01-03T23:32:43.936Z,7.97
2018-01-03T23:35:11.832Z,5.75
2018-01-03T23:37:39.489Z,6.35
2018-01-03T23:40:07.071Z,6.12
2018-01-03T23:42:34.547Z,6.28
2018-01-03T23:45:02.132Z,6.25
2018-01-03T23:47:29.611Z,6.55
2018-01-03T23:49:57.120Z,5.70
2018-01-03T23:52:25.005Z,5.85
2018-01-03T23:54:52.517Z,6.03
2018-01-03T23:57:20.008Z,7.07
2018-01-03T23:59:47.548Z,6.57
